BBRO2: Mountain Fork, Broken Bow Rereg

Data processed at Sat Aug 19 2017 21:53


All information presented herein is the property of the government of the United States of America and may be revised or deleted at any time without prior notice.
Dissemination of this information without the expressed written consent of the Public Affairs Office, Tulsa District U.S. Army Corps of Engineers is strictly prohibited.
These data are gathered electronically and, as presented, have not undergone any form of quality control. These data are not guaranteed to be valid or correct.
Go to home page.
Go to station list.

Upstream stations:

Downstream station:
Previous Day
Next Day
Current Day
    
SHEF ID:       BBRO2     Mountain Fork Re-regulation Dam
STATION TYPE:  

                STAGE  RIV-FLOW   VOLTAGE  BAT-LOAD
                   ft       cfs      volt      volt
              Ccp-Rev   Ccp-Rev   Ccp-Rev   Ccp-Rev
(US/Central)
08/19 00:00    391.56      1124     13.70     13.36
08/19 01:00    391.20       992     13.70     13.36
08/19 02:00    390.88       865     13.70     13.36
08/19 03:00    390.61       745     13.60     13.36
08/19 04:00    390.36       648     13.60     13.36
08/19 05:00    390.13       570     13.60     13.36
08/19 06:00    389.93       505     13.60     13.36
08/19 07:00    389.76       448     13.60     13.36
08/19 08:00    389.60       401     13.60     13.36
08/19 09:00    389.45       361     13.60     13.36
08/19 10:00    389.33       332     13.60     13.36
08/19 11:00    389.21       305     13.70     13.07
08/19 12:00    389.10       282     13.60     13.36
08/19 13:00    389.01       265     13.70     13.36
08/19 14:00    388.92       249     13.70     13.36
08/19 15:00    389.54       384     13.70     13.36
08/19 16:00    390.85       851     13.70     13.36
08/19 17:00    391.93      1279     13.70     13.36
08/19 18:00    392.43      1478     13.70     13.36
08/19 19:00    392.09      1344     13.70     13.30
08/19 20:00    391.70      1180     13.70     13.36
08/19 21:00    391.34      1041     13.70     13.36
08/19 22:00      ----      ----      ----      ----
08/19 23:00      ----      ----      ----      ----